sensor_id;sensor_type;location;lat;lon;timestamp;temperature;humidity
8591;DHT22;4333;48.322;14.340;2024-03-23T00:53:16;10.20;99.90
8591;DHT22;4333;48.322;14.340;2024-03-23T00:55:45;10.20;99.90
8591;DHT22;4333;48.322;14.340;2024-03-23T00:58:13;10.10;99.90
8591;DHT22;4333;48.322;14.340;2024-03-23T01:00:41;10.00;99.90
8591;DHT22;4333;48.322;14.340;2024-03-23T01:03:07;10.00;99.90
8591;DHT22;4333;48.322;14.340;2024-03-23T01:05:33;10.10;99.90
8591;DHT22;4333;48.322;14.340;2024-03-23T01:08:01;10.10;99.90
8591;DHT22;4333;48.322;14.340;2024-03-23T01:10:30;10.20;99.90
8591;DHT22;4333;48.322;14.340;2024-03-23T01:13:01;10.10;99.90
8591;DHT22;4333;48.322;14.340;2024-03-23T01:15:27;10.20;99.90
8591;DHT22;4333;48.322;14.340;2024-03-23T01:17:53;10.20;99.90
8591;DHT22;4333;48.322;14.340;2024-03-23T01:20:22;10.20;99.90
8591;DHT22;4333;48.322;14.340;2024-03-23T01:22:49;10.20;99.90
8591;DHT22;4333;48.322;14.340;2024-03-23T01:25:20;10.20;99.90
8591;DHT22;4333;48.322;14.340;2024-03-23T01:27:55;10.30;99.90
8591;DHT22;4333;48.322;14.340;2024-03-23T01:30:24;10.30;99.90
8591;DHT22;4333;48.322;14.340;2024-03-23T01:32:52;10.30;99.90
8591;DHT22;4333;48.322;14.340;2024-03-23T01:35:17;10.30;99.90
8591;DHT22;4333;48.322;14.340;2024-03-23T01:37:48;10.20;99.90
8591;DHT22;4333;48.322;14.340;2024-03-23T01:40:17;10.10;99.90
8591;DHT22;4333;48.322;14.340;2024-03-23T01:42:43;10.10;99.90
8591;DHT22;4333;48.322;14.340;2024-03-23T01:45:20;10.20;99.90
8591;DHT22;4333;48.322;14.340;2024-03-23T01:47:51;10.20;99.90
8591;DHT22;4333;48.322;14.340;2024-03-23T01:50:20;10.20;99.90
8591;DHT22;4333;48.322;14.340;2024-03-23T01:52:49;10.10;99.90
8591;DHT22;4333;48.322;14.340;2024-03-23T01:55:15;10.10;99.90
8591;DHT22;4333;48.322;14.340;2024-03-23T01:57:41;10.20;99.90
8591;DHT22;4333;48.322;14.340;2024-03-23T02:00:16;10.20;99.90
8591;DHT22;4333;48.322;14.340;2024-03-23T02:02:47;10.30;99.90
8591;DHT22;4333;48.322;14.340;2024-03-23T02:05:16;10.20;99.90
8591;DHT22;4333;48.322;14.340;2024-03-23T02:07:45;10.20;99.90
8591;DHT22;4333;48.322;14.340;2024-03-23T02:10:11;10.20;99.90
8591;DHT22;4333;48.322;14.340;2024-03-23T02:12:40;10.10;99.90
8591;DHT22;4333;48.322;14.340;2024-03-23T02:15:09;10.10;99.90
8591;DHT22;4333;48.322;14.340;2024-03-23T02:17:39;10.10;99.90
8591;DHT22;4333;48.322;14.340;2024-03-23T02:20:08;10.10;99.90
8591;DHT22;4333;48.322;14.340;2024-03-23T02:22:40;10.20;99.90
8591;DHT22;4333;48.322;14.340;2024-03-23T02:25:09;10.20;99.90
8591;DHT22;4333;48.322;14.340;2024-03-23T02:27:34;10.20;99.90
8591;DHT22;4333;48.322;14.340;2024-03-23T02:30:01;10.20;99.90
8591;DHT22;4333;48.322;14.340;2024-03-23T02:32:39;10.20;99.90
8591;DHT22;4333;48.322;14.340;2024-03-23T02:35:07;10.10;99.90
8591;DHT22;4333;48.322;14.340;2024-03-23T02:37:35;10.00;99.90
8591;DHT22;4333;48.322;14.340;2024-03-23T02:40:04;9.90;99.90
8591;DHT22;4333;48.322;14.340;2024-03-23T02:42:33;9.80;99.90
8591;DHT22;4333;48.322;14.340;2024-03-23T02:45:01;9.60;99.90
8591;DHT22;4333;48.322;14.340;2024-03-23T02:47:33;9.60;99.90
8591;DHT22;4333;48.322;14.340;2024-03-23T02:49:59;9.60;99.90
8591;DHT22;4333;48.322;14.340;2024-03-23T02:52:30;9.60;99.90
8591;DHT22;4333;48.322;14.340;2024-03-23T02:54:58;9.40;99.90
8591;DHT22;4333;48.322;14.340;2024-03-23T02:57:27;9.30;99.90
8591;DHT22;4333;48.322;14.340;2024-03-23T02:59:56;9.10;99.90
8591;DHT22;4333;48.322;14.340;2024-03-23T03:02:25;8.90;99.90
8591;DHT22;4333;48.322;14.340;2024-03-23T03:04:55;8.80;99.90
8591;DHT22;4333;48.322;14.340;2024-03-23T03:07:21;8.70;99.90
8591;DHT22;4333;48.322;14.340;2024-03-23T03:09:52;8.70;99.90
8591;DHT22;4333;48.322;14.340;2024-03-23T03:12:21;8.60;99.90
8591;DHT22;4333;48.322;14.340;2024-03-23T03:14:47;8.60;99.90
8591;DHT22;4333;48.322;14.340;2024-03-23T03:17:13;8.50;99.90
8591;DHT22;4333;48.322;14.340;2024-03-23T03:19:44;8.70;99.90
8591;DHT22;4333;48.322;14.340;2024-03-23T03:22:10;8.70;99.90
8591;DHT22;4333;48.322;14.340;2024-03-23T03:24:36;8.80;99.90
8591;DHT22;4333;48.322;14.340;2024-03-23T03:27:04;8.70;99.90
8591;DHT22;4333;48.322;14.340;2024-03-23T03:29:34;8.60;99.90
8591;DHT22;4333;48.322;14.340;2024-03-23T03:32:03;8.40;99.90
8591;DHT22;4333;48.322;14.340;2024-03-23T03:34:29;8.30;99.90
8591;DHT22;4333;48.322;14.340;2024-03-23T03:37:00;8.30;99.90
8591;DHT22;4333;48.322;14.340;2024-03-23T03:39:30;8.20;99.90
8591;DHT22;4333;48.322;14.340;2024-03-23T03:41:58;8.20;99.90
8591;DHT22;4333;48.322;14.340;2024-03-23T03:44:28;8.20;99.90
8591;DHT22;4333;48.322;14.340;2024-03-23T03:46:54;8.30;99.90
8591;DHT22;4333;48.322;14.340;2024-03-23T03:49:26;8.40;99.90
8591;DHT22;4333;48.322;14.340;2024-03-23T03:51:57;8.50;99.90
8591;DHT22;4333;48.322;14.340;2024-03-23T03:54:28;8.40;99.90
8591;DHT22;4333;48.322;14.340;2024-03-23T03:56:54;8.40;99.90
8591;DHT22;4333;48.322;14.340;2024-03-23T03:59:23;8.40;99.90
8591;DHT22;4333;48.322;14.340;2024-03-23T04:01:48;8.50;99.90
8591;DHT22;4333;48.322;14.340;2024-03-23T04:04:20;8.40;99.90
8591;DHT22;4333;48.322;14.340;2024-03-23T04:06:50;8.40;99.90
8591;DHT22;4333;48.322;14.340;2024-03-23T04:09:23;8.30;99.90
8591;DHT22;4333;48.322;14.340;2024-03-23T04:11:51;8.30;99.90
8591;DHT22;4333;48.322;14.340;2024-03-23T04:14:19;8.20;99.90
8591;DHT22;4333;48.322;14.340;2024-03-23T04:16:45;8.00;99.90
8591;DHT22;4333;48.322;14.340;2024-03-23T04:19:14;8.10;99.90
8591;DHT22;4333;48.322;14.340;2024-03-23T04:22:00;8.20;99.90
8591;DHT22;4333;48.322;14.340;2024-03-23T04:24:29;8.10;99.90
8591;DHT22;4333;48.322;14.340;2024-03-23T04:26:56;8.00;99.90
8591;DHT22;4333;48.322;14.340;2024-03-23T04:29:24;8.00;99.90
8591;DHT22;4333;48.322;14.340;2024-03-23T04:31:52;8.00;99.90
8591;DHT22;4333;48.322;14.340;2024-03-23T04:34:20;7.90;99.90
8591;DHT22;4333;48.322;14.340;2024-03-23T04:36:53;7.80;99.90
8591;DHT22;4333;48.322;14.340;2024-03-23T04:39:21;7.60;99.90
8591;DHT22;4333;48.322;14.340;2024-03-23T04:41:50;7.60;99.90
8591;DHT22;4333;48.322;14.340;2024-03-23T04:44:18;7.40;99.90
8591;DHT22;4333;48.322;14.340;2024-03-23T04:46:44;7.30;99.90
8591;DHT22;4333;48.322;14.340;2024-03-23T04:49:10;7.20;99.90
8591;DHT22;4333;48.322;14.340;2024-03-23T04:51:41;7.30;99.90
8591;DHT22;4333;48.322;14.340;2024-03-23T04:54:12;7.20;99.90
8591;DHT22;4333;48.322;14.340;2024-03-23T04:56:40;7.30;99.90
8591;DHT22;4333;48.322;14.340;2024-03-23T04:59:09;7.30;99.90
8591;DHT22;4333;48.322;14.340;2024-03-23T05:01:34;7.30;99.90
8591;DHT22;4333;48.322;14.340;2024-03-23T05:04:03;7.30;99.90
8591;DHT22;4333;48.322;14.340;2024-03-23T05:06:35;7.20;99.90
8591;DHT22;4333;48.322;14.340;2024-03-23T05:09:03;7.20;99.90
8591;DHT22;4333;48.322;14.340;2024-03-23T05:11:34;7.20;99.90
8591;DHT22;4333;48.322;14.340;2024-03-23T05:14:03;7.10;99.90
8591;DHT22;4333;48.322;14.340;2024-03-23T05:16:32;7.10;99.90
8591;DHT22;4333;48.322;14.340;2024-03-23T05:19:01;7.00;99.90
8591;DHT22;4333;48.322;14.340;2024-03-23T05:21:27;7.00;99.90
8591;DHT22;4333;48.322;14.340;2024-03-23T05:24:04;7.00;99.90
8591;DHT22;4333;48.322;14.340;2024-03-23T05:26:39;7.00;99.90
8591;DHT22;4333;48.322;14.340;2024-03-23T05:29:07;7.10;99.90
8591;DHT22;4333;48.322;14.340;2024-03-23T05:31:36;7.10;99.90
8591;DHT22;4333;48.322;14.340;2024-03-23T05:34:07;7.10;99.90
8591;DHT22;4333;48.322;14.340;2024-03-23T05:36:38;7.10;99.90
8591;DHT22;4333;48.322;14.340;2024-03-23T05:39:15;7.20;99.90
8591;DHT22;4333;48.322;14.340;2024-03-23T05:41:42;7.30;99.90
8591;DHT22;4333;48.322;14.340;2024-03-23T05:44:08;7.50;99.90
8591;DHT22;4333;48.322;14.340;2024-03-23T05:46:33;7.60;99.90
8591;DHT22;4333;48.322;14.340;2024-03-23T05:49:01;7.60;99.90
8591;DHT22;4333;48.322;14.340;2024-03-23T05:51:31;7.60;99.90
8591;DHT22;4333;48.322;14.340;2024-03-23T05:53:59;7.60;99.90
8591;DHT22;4333;48.322;14.340;2024-03-23T05:56:27;7.80;99.90
8591;DHT22;4333;48.322;14.340;2024-03-23T05:58:53;8.00;99.90
8591;DHT22;4333;48.322;14.340;2024-03-23T06:01:22;8.10;99.90
8591;DHT22;4333;48.322;14.340;2024-03-23T06:03:47;8.10;99.90
8591;DHT22;4333;48.322;14.340;2024-03-23T06:06:19;8.30;99.90
8591;DHT22;4333;48.322;14.340;2024-03-23T06:08:51;8.20;99.90
8591;DHT22;4333;48.322;14.340;2024-03-23T06:11:19;8.10;99.90
8591;DHT22;4333;48.322;14.340;2024-03-23T06:13:50;8.00;99.90
8591;DHT22;4333;48.322;14.340;2024-03-23T06:16:16;8.00;99.90
8591;DHT22;4333;48.322;14.340;2024-03-23T06:18:44;8.10;99.90
8591;DHT22;4333;48.322;14.340;2024-03-23T06:21:19;8.10;99.90
8591;DHT22;4333;48.322;14.340;2024-03-23T06:23:47;8.20;99.90
8591;DHT22;4333;48.322;14.340;2024-03-23T06:26:19;8.30;99.90
8591;DHT22;4333;48.322;14.340;2024-03-23T06:28:45;8.50;99.90
8591;DHT22;4333;48.322;14.340;2024-03-23T06:31:11;8.60;99.90
8591;DHT22;4333;48.322;14.340;2024-03-23T06:33:38;8.80;99.90
8591;DHT22;4333;48.322;14.340;2024-03-23T06:36:07;8.80;99.90
8591;DHT22;4333;48.322;14.340;2024-03-23T06:38:34;8.80;99.90
8591;DHT22;4333;48.322;14.340;2024-03-23T06:41:03;8.90;99.90
8591;DHT22;4333;48.322;14.340;2024-03-23T06:43:34;9.70;99.90
8591;DHT22;4333;48.322;14.340;2024-03-23T06:46:11;11.50;99.90
8591;DHT22;4333;48.322;14.340;2024-03-23T06:48:41;14.40;99.90
8591;DHT22;4333;48.322;14.340;2024-03-23T06:51:10;17.00;49.80
8591;DHT22;4333;48.322;14.340;2024-03-23T06:53:36;19.20;23.30
8591;DHT22;4333;48.322;14.340;2024-03-23T06:56:03;20.90;1.00
8591;DHT22;4333;48.322;14.340;2024-03-23T06:58:29;22.10;1.00
8591;DHT22;4333;48.322;14.340;2024-03-23T07:00:58;23.10;1.00
8591;DHT22;4333;48.322;14.340;2024-03-23T07:03:24;24.00;1.00
8591;DHT22;4333;48.322;14.340;2024-03-23T07:05:58;24.00;1.00
8591;DHT22;4333;48.322;14.340;2024-03-23T07:08:27;24.70;1.00
8591;DHT22;4333;48.322;14.340;2024-03-23T07:10:55;25.20;1.00
8591;DHT22;4333;48.322;14.340;2024-03-23T07:13:21;25.00;1.00
8591;DHT22;4333;48.322;14.340;2024-03-23T07:15:53;25.00;1.00
8591;DHT22;4333;48.322;14.340;2024-03-23T07:18:20;25.60;1.00
8591;DHT22;4333;48.322;14.340;2024-03-23T07:20:56;26.50;1.00
8591;DHT22;4333;48.322;14.340;2024-03-23T07:23:24;27.00;1.00
8591;DHT22;4333;48.322;14.340;2024-03-23T07:26:01;27.00;1.00
8591;DHT22;4333;48.322;14.340;2024-03-23T07:28:27;26.40;1.00
8591;DHT22;4333;48.322;14.340;2024-03-23T07:31:13;25.70;1.00
8591;DHT22;4333;48.322;14.340;2024-03-23T07:33:47;25.80;1.00
8591;DHT22;4333;48.322;14.340;2024-03-23T07:36:15;26.10;1.00
8591;DHT22;4333;48.322;14.340;2024-03-23T07:38:42;26.10;1.00
8591;DHT22;4333;48.322;14.340;2024-03-23T07:41:17;27.20;1.00
8591;DHT22;4333;48.322;14.340;2024-03-23T07:43:47;28.00;1.00
8591;DHT22;4333;48.322;14.340;2024-03-23T07:46:16;27.30;1.00
8591;DHT22;4333;48.322;14.340;2024-03-23T07:48:45;26.90;1.00
8591;DHT22;4333;48.322;14.340;2024-03-23T07:51:22;26.20;1.00
8591;DHT22;4333;48.322;14.340;2024-03-23T07:53:55;24.60;1.00
8591;DHT22;4333;48.322;14.340;2024-03-23T07:56:21;23.70;1.00
8591;DHT22;4333;48.322;14.340;2024-03-23T07:58:53;23.30;1.00
8591;DHT22;4333;48.322;14.340;2024-03-23T08:01:24;22.70;1.00
8591;DHT22;4333;48.322;14.340;2024-03-23T08:03:52;22.30;1.00
8591;DHT22;4333;48.322;14.340;2024-03-23T08:06:21;21.40;1.00
8591;DHT22;4333;48.322;14.340;2024-03-23T08:08:52;21.10;1.00
8591;DHT22;4333;48.322;14.340;2024-03-23T08:11:36;20.30;1.00
8591;DHT22;4333;48.322;14.340;2024-03-23T08:14:04;20.70;1.00
8591;DHT22;4333;48.322;14.340;2024-03-23T08:16:31;20.00;1.00
8591;DHT22;4333;48.322;14.340;2024-03-23T08:19:01;20.80;1.00
8591;DHT22;4333;48.322;14.340;2024-03-23T08:21:34;21.30;1.00
8591;DHT22;4333;48.322;14.340;2024-03-23T08:24:00;19.60;1.00
8591;DHT22;4333;48.322;14.340;2024-03-23T08:26:25;18.60;1.00
8591;DHT22;4333;48.322;14.340;2024-03-23T08:28:54;19.30;1.00
8591;DHT22;4333;48.322;14.340;2024-03-23T08:31:22;18.60;1.00
8591;DHT22;4333;48.322;14.340;2024-03-23T08:33:48;18.20;1.00
8591;DHT22;4333;48.322;14.340;2024-03-23T08:36:17;18.90;1.00
8591;DHT22;4333;48.322;14.340;2024-03-23T08:38:46;18.70;1.00
8591;DHT22;4333;48.322;14.340;2024-03-23T08:41:19;18.80;1.00
8591;DHT22;4333;48.322;14.340;2024-03-23T08:43:44;20.10;1.00
8591;DHT22;4333;48.322;14.340;2024-03-23T08:46:16;20.00;1.00
8591;DHT22;4333;48.322;14.340;2024-03-23T08:48:44;19.90;1.00
8591;DHT22;4333;48.322;14.340;2024-03-23T08:51:14;20.70;1.00
8591;DHT22;4333;48.322;14.340;2024-03-23T08:53:46;21.20;1.00
8591;DHT22;4333;48.322;14.340;2024-03-23T08:56:17;21.30;1.00
8591;DHT22;4333;48.322;14.340;2024-03-23T08:58:51;20.70;1.00
8591;DHT22;4333;48.322;14.340;2024-03-23T09:01:18;21.70;1.00
8591;DHT22;4333;48.322;14.340;2024-03-23T09:03:44;22.40;1.00
8591;DHT22;4333;48.322;14.340;2024-03-23T09:06:12;22.80;1.00
8591;DHT22;4333;48.322;14.340;2024-03-23T09:08:49;23.10;1.00
8591;DHT22;4333;48.322;14.340;2024-03-23T09:11:17;22.60;1.00
8591;DHT22;4333;48.322;14.340;2024-03-23T09:13:43;22.60;1.00
8591;DHT22;4333;48.322;14.340;2024-03-23T09:16:09;23.40;1.00
8591;DHT22;4333;48.322;14.340;2024-03-23T09:18:38;23.70;1.00
8591;DHT22;4333;48.322;14.340;2024-03-23T09:21:11;23.70;1.00
8591;DHT22;4333;48.322;14.340;2024-03-23T09:23:37;22.90;1.00
8591;DHT22;4333;48.322;14.340;2024-03-23T09:26:03;22.20;1.00
8591;DHT22;4333;48.322;14.340;2024-03-23T09:28:32;22.50;1.00
8591;DHT22;4333;48.322;14.340;2024-03-23T09:31:07;22.80;1.00
8591;DHT22;4333;48.322;14.340;2024-03-23T09:33:36;22.70;1.00
8591;DHT22;4333;48.322;14.340;2024-03-23T09:36:05;22.70;1.00
8591;DHT22;4333;48.322;14.340;2024-03-23T09:38:31;23.10;1.00
8591;DHT22;4333;48.322;14.340;2024-03-23T09:41:09;23.60;1.00
8591;DHT22;4333;48.322;14.340;2024-03-23T09:43:38;23.90;1.00
8591;DHT22;4333;48.322;14.340;2024-03-23T09:46:04;23.50;1.00
8591;DHT22;4333;48.322;14.340;2024-03-23T09:48:33;22.70;1.00
8591;DHT22;4333;48.322;14.340;2024-03-23T09:51:02;22.30;1.00
8591;DHT22;4333;48.322;14.340;2024-03-23T09:53:28;21.30;1.00
8591;DHT22;4333;48.322;14.340;2024-03-23T09:55:54;21.00;1.00
8591;DHT22;4333;48.322;14.340;2024-03-23T09:58:23;20.00;1.00
8591;DHT22;4333;48.322;14.340;2024-03-23T10:00:48;19.60;1.00
8591;DHT22;4333;48.322;14.340;2024-03-23T10:03:15;19.60;1.00
8591;DHT22;4333;48.322;14.340;2024-03-23T10:06:01;19.20;1.00
8591;DHT22;4333;48.322;14.340;2024-03-23T10:08:33;19.00;1.00
8591;DHT22;4333;48.322;14.340;2024-03-23T10:11:14;19.20;1.00
8591;DHT22;4333;48.322;14.340;2024-03-23T10:13:44;19.30;1.00
8591;DHT22;4333;48.322;14.340;2024-03-23T10:16:21;19.20;1.00
8591;DHT22;4333;48.322;14.340;2024-03-23T10:18:54;19.40;1.00
8591;DHT22;4333;48.322;14.340;2024-03-23T10:21:20;19.20;1.00
8591;DHT22;4333;48.322;14.340;2024-03-23T10:23:49;19.10;1.00
8591;DHT22;4333;48.322;14.340;2024-03-23T10:26:25;18.80;1.00
8591;DHT22;4333;48.322;14.340;2024-03-23T10:29:01;18.40;1.00
8591;DHT22;4333;48.322;14.340;2024-03-23T10:31:29;18.20;1.00
8591;DHT22;4333;48.322;14.340;2024-03-23T10:33:58;17.70;1.00
8591;DHT22;4333;48.322;14.340;2024-03-23T10:36:26;16.80;1.00
8591;DHT22;4333;48.322;14.340;2024-03-23T10:38:55;16.10;1.00
8591;DHT22;4333;48.322;14.340;2024-03-23T10:41:28;15.70;1.00
8591;DHT22;4333;48.322;14.340;2024-03-23T10:43:55;15.20;1.00
8591;DHT22;4333;48.322;14.340;2024-03-23T10:46:25;14.90;1.00
8591;DHT22;4333;48.322;14.340;2024-03-23T10:48:51;14.70;1.00
8591;DHT22;4333;48.322;14.340;2024-03-23T10:51:22;14.50;1.00
8591;DHT22;4333;48.322;14.340;2024-03-23T10:53:51;14.50;1.00
8591;DHT22;4333;48.322;14.340;2024-03-23T10:56:19;14.40;1.00
8591;DHT22;4333;48.322;14.340;2024-03-23T10:58:47;14.50;1.00
8591;DHT22;4333;48.322;14.340;2024-03-23T11:01:17;14.50;1.00
8591;DHT22;4333;48.322;14.340;2024-03-23T11:03:49;14.40;1.00
8591;DHT22;4333;48.322;14.340;2024-03-23T11:06:53;14.30;1.00
8591;DHT22;4333;48.322;14.340;2024-03-23T11:09:40;14.20;1.00
8591;DHT22;4333;48.322;14.340;2024-03-23T11:15:10;14.40;1.00
8591;DHT22;4333;48.322;14.340;2024-03-23T11:17:39;14.40;1.00
8591;DHT22;4333;48.322;14.340;2024-03-23T11:20:08;14.30;1.00
8591;DHT22;4333;48.322;14.340;2024-03-23T11:25:04;14.20;1.00
8591;DHT22;4333;48.322;14.340;2024-03-23T11:27:38;14.30;1.00
8591;DHT22;4333;48.322;14.340;2024-03-23T11:30:22;14.20;1.00
8591;DHT22;4333;48.322;14.340;2024-03-23T11:32:52;14.00;1.00
8591;DHT22;4333;48.322;14.340;2024-03-23T11:35:34;13.90;1.00
8591;DHT22;4333;48.322;14.340;2024-03-23T11:38:17;14.00;1.00
8591;DHT22;4333;48.322;14.340;2024-03-23T11:40:47;14.00;1.00
8591;DHT22;4333;48.322;14.340;2024-03-23T11:43:20;13.90;1.00
8591;DHT22;4333;48.322;14.340;2024-03-23T11:45:49;13.60;1.00
8591;DHT22;4333;48.322;14.340;2024-03-23T11:48:21;13.30;1.00
8591;DHT22;4333;48.322;14.340;2024-03-23T11:50:48;12.90;1.00
8591;DHT22;4333;48.322;14.340;2024-03-23T11:56:03;12.60;1.00
8591;DHT22;4333;48.322;14.340;2024-03-23T11:58:35;12.40;1.00
8591;DHT22;4333;48.322;14.340;2024-03-23T12:01:09;12.30;1.00
8591;DHT22;4333;48.322;14.340;2024-03-23T12:03:35;12.20;1.00
8591;DHT22;4333;48.322;14.340;2024-03-23T12:06:04;12.00;4.10
8591;DHT22;4333;48.322;14.340;2024-03-23T12:08:32;12.00;7.50
8591;DHT22;4333;48.322;14.340;2024-03-23T12:11:12;11.90;9.60
8591;DHT22;4333;48.322;14.340;2024-03-23T12:13:42;11.80;12.80
8591;DHT22;4333;48.322;14.340;2024-03-23T12:16:21;11.70;15.50
8591;DHT22;4333;48.322;14.340;2024-03-23T12:18:52;11.60;14.40
8591;DHT22;4333;48.322;14.340;2024-03-23T12:21:20;11.60;16.50
8591;DHT22;4333;48.322;14.340;2024-03-23T12:23:49;11.60;15.60
8591;DHT22;4333;48.322;14.340;2024-03-23T12:26:18;11.50;13.80
8591;DHT22;4333;48.322;14.340;2024-03-23T12:28:46;11.40;15.80
8591;DHT22;4333;48.322;14.340;2024-03-23T12:31:12;11.40;17.40
8591;DHT22;4333;48.322;14.340;2024-03-23T12:33:38;11.30;20.70
8591;DHT22;4333;48.322;14.340;2024-03-23T12:36:07;11.40;27.90
8591;DHT22;4333;48.322;14.340;2024-03-23T12:38:33;11.20;31.20
8591;DHT22;4333;48.322;14.340;2024-03-23T12:41:02;11.20;37.00
8591;DHT22;4333;48.322;14.340;2024-03-23T12:43:30;11.20;38.20
8591;DHT22;4333;48.322;14.340;2024-03-23T12:45:56;11.30;45.70
8591;DHT22;4333;48.322;14.340;2024-03-23T12:48:22;11.30;49.40
8591;DHT22;4333;48.322;14.340;2024-03-23T12:50:48;11.10;53.60
8591;DHT22;4333;48.322;14.340;2024-03-23T12:53:13;11.00;57.20
8591;DHT22;4333;48.322;14.340;2024-03-23T12:55:39;11.00;63.90
8591;DHT22;4333;48.322;14.340;2024-03-23T12:58:10;10.90;69.70
8591;DHT22;4333;48.322;14.340;2024-03-23T13:00:36;10.80;75.10
8591;DHT22;4333;48.322;14.340;2024-03-23T13:03:02;10.70;86.40
8591;DHT22;4333;48.322;14.340;2024-03-23T13:05:29;10.60;92.10
8591;DHT22;4333;48.322;14.340;2024-03-23T13:07:55;10.50;95.70
8591;DHT22;4333;48.322;14.340;2024-03-23T13:10:24;10.40;91.60
8591;DHT22;4333;48.322;14.340;2024-03-23T13:12:55;10.20;95.90
8591;DHT22;4333;48.322;14.340;2024-03-23T13:15:24;10.20;96.90
8591;DHT22;4333;48.322;14.340;2024-03-23T13:17:52;10.20;87.40
8591;DHT22;4333;48.322;14.340;2024-03-23T13:20:20;10.20;93.10
8591;DHT22;4333;48.322;14.340;2024-03-23T13:22:45;10.20;89.10
8591;DHT22;4333;48.322;14.340;2024-03-23T13:25:12;10.20;66.10
8591;DHT22;4333;48.322;14.340;2024-03-23T13:27:39;10.20;70.00
8591;DHT22;4333;48.322;14.340;2024-03-23T13:30:05;10.20;76.60
8591;DHT22;4333;48.322;14.340;2024-03-23T13:32:36;10.10;68.60
8591;DHT22;4333;48.322;14.340;2024-03-23T13:35:03;10.00;72.40
8591;DHT22;4333;48.322;14.340;2024-03-23T13:37:29;9.90;71.10
8591;DHT22;4333;48.322;14.340;2024-03-23T13:39:55;9.90;89.60
8591;DHT22;4333;48.322;14.340;2024-03-23T13:42:20;9.90;71.40
8591;DHT22;4333;48.322;14.340;2024-03-23T13:44:46;9.90;67.40
8591;DHT22;4333;48.322;14.340;2024-03-23T13:47:15;9.90;62.70
8591;DHT22;4333;48.322;14.340;2024-03-23T13:49:41;10.00;57.30
8591;DHT22;4333;48.322;14.340;2024-03-23T13:52:10;10.10;55.30
8591;DHT22;4333;48.322;14.340;2024-03-23T13:54:36;10.10;55.00
8591;DHT22;4333;48.322;14.340;2024-03-23T13:57:03;10.10;53.20
8591;DHT22;4333;48.322;14.340;2024-03-23T13:59:31;10.10;53.30
8591;DHT22;4333;48.322;14.340;2024-03-23T14:01:57;10.10;59.00
8591;DHT22;4333;48.322;14.340;2024-03-23T14:04:26;9.70;78.40
8591;DHT22;4333;48.322;14.340;2024-03-23T14:06:51;9.40;92.10
8591;DHT22;4333;48.322;14.340;2024-03-23T14:09:17;9.10;99.90
8591;DHT22;4333;48.322;14.340;2024-03-23T14:11:51;8.80;99.90
8591;DHT22;4333;48.322;14.340;2024-03-23T14:14:17;8.60;99.90
8591;DHT22;4333;48.322;14.340;2024-03-23T14:16:43;8.30;99.90
8591;DHT22;4333;48.322;14.340;2024-03-23T14:19:10;8.30;99.90
8591;DHT22;4333;48.322;14.340;2024-03-23T14:21:39;8.30;99.90
8591;DHT22;4333;48.322;14.340;2024-03-23T14:24:05;8.30;99.90
8591;DHT22;4333;48.322;14.340;2024-03-23T14:26:31;8.30;99.90
8591;DHT22;4333;48.322;14.340;2024-03-23T14:29:00;8.40;99.90
8591;DHT22;4333;48.322;14.340;2024-03-23T14:31:26;8.40;99.90
8591;DHT22;4333;48.322;14.340;2024-03-23T14:33:54;8.40;99.90
8591;DHT22;4333;48.322;14.340;2024-03-23T14:36:22;8.40;99.90
8591;DHT22;4333;48.322;14.340;2024-03-23T14:38:54;8.30;99.90
8591;DHT22;4333;48.322;14.340;2024-03-23T14:41:20;8.40;99.90
8591;DHT22;4333;48.322;14.340;2024-03-23T14:43:45;8.40;99.90
8591;DHT22;4333;48.322;14.340;2024-03-23T14:46:19;8.40;99.90
8591;DHT22;4333;48.322;14.340;2024-03-23T14:48:54;8.40;99.90
8591;DHT22;4333;48.322;14.340;2024-03-23T14:51:21;8.40;99.90
8591;DHT22;4333;48.322;14.340;2024-03-23T14:53:47;8.50;99.90
8591;DHT22;4333;48.322;14.340;2024-03-23T14:56:13;8.60;99.90
8591;DHT22;4333;48.322;14.340;2024-03-23T14:58:41;8.60;99.90
8591;DHT22;4333;48.322;14.340;2024-03-23T15:01:11;8.60;99.90
8591;DHT22;4333;48.322;14.340;2024-03-23T15:03:39;8.60;99.90
8591;DHT22;4333;48.322;14.340;2024-03-23T15:06:09;8.50;99.90
8591;DHT22;4333;48.322;14.340;2024-03-23T15:08:43;8.40;99.90
8591;DHT22;4333;48.322;14.340;2024-03-23T15:11:09;8.40;98.70
8591;DHT22;4333;48.322;14.340;2024-03-23T15:13:36;8.40;99.90
8591;DHT22;4333;48.322;14.340;2024-03-23T15:16:06;8.30;99.90
8591;DHT22;4333;48.322;14.340;2024-03-23T15:18:33;8.30;98.10
8591;DHT22;4333;48.322;14.340;2024-03-23T15:21:01;8.30;96.60
8591;DHT22;4333;48.322;14.340;2024-03-23T15:23:37;8.30;97.90
8591;DHT22;4333;48.322;14.340;2024-03-23T15:26:07;8.30;99.00
8591;DHT22;4333;48.322;14.340;2024-03-23T15:28:38;8.40;99.90
8591;DHT22;4333;48.322;14.340;2024-03-23T15:31:27;8.30;99.90
8591;DHT22;4333;48.322;14.340;2024-03-23T15:33:54;8.30;97.80
8591;DHT22;4333;48.322;14.340;2024-03-23T15:36:20;8.30;97.00
8591;DHT22;4333;48.322;14.340;2024-03-23T15:38:46;8.20;98.20
8591;DHT22;4333;48.322;14.340;2024-03-23T15:41:14;8.20;99.90
8591;DHT22;4333;48.322;14.340;2024-03-23T15:43:51;8.20;99.90
8591;DHT22;4333;48.322;14.340;2024-03-23T15:46:23;8.30;99.90
8591;DHT22;4333;48.322;14.340;2024-03-23T15:48:51;8.30;99.90
8591;DHT22;4333;48.322;14.340;2024-03-23T15:51:17;8.30;99.90
8591;DHT22;4333;48.322;14.340;2024-03-23T15:53:43;8.40;99.90
8591;DHT22;4333;48.322;14.340;2024-03-23T15:56:09;8.50;99.90
8591;DHT22;4333;48.322;14.340;2024-03-23T15:58:40;8.50;99.90
8591;DHT22;4333;48.322;14.340;2024-03-23T16:01:09;8.50;98.80
8591;DHT22;4333;48.322;14.340;2024-03-23T16:03:36;8.40;99.90
8591;DHT22;4333;48.322;14.340;2024-03-23T16:06:07;8.40;97.40
8591;DHT22;4333;48.322;14.340;2024-03-23T16:08:34;8.40;99.50
8591;DHT22;4333;48.322;14.340;2024-03-23T16:11:06;8.40;99.30
8591;DHT22;4333;48.322;14.340;2024-03-23T16:13:35;8.30;95.30
8591;DHT22;4333;48.322;14.340;2024-03-23T16:16:03;8.40;99.60
8591;DHT22;4333;48.322;14.340;2024-03-23T16:18:32;8.40;99.90
8591;DHT22;4333;48.322;14.340;2024-03-23T16:21:03;8.50;99.90
8591;DHT22;4333;48.322;14.340;2024-03-23T16:23:30;8.50;99.90
8591;DHT22;4333;48.322;14.340;2024-03-23T16:25:57;8.60;99.90
8591;DHT22;4333;48.322;14.340;2024-03-23T16:28:27;8.50;99.90
8591;DHT22;4333;48.322;14.340;2024-03-23T16:31:04;8.50;99.20
8591;DHT22;4333;48.322;14.340;2024-03-23T16:33:34;8.50;99.80
8591;DHT22;4333;48.322;14.340;2024-03-23T16:36:09;8.50;99.60
8591;DHT22;4333;48.322;14.340;2024-03-23T16:38:40;8.40;99.90
8591;DHT22;4333;48.322;14.340;2024-03-23T16:41:09;8.40;97.80
8591;DHT22;4333;48.322;14.340;2024-03-23T16:43:38;8.50;99.90
8591;DHT22;4333;48.322;14.340;2024-03-23T16:46:06;8.50;94.00
8591;DHT22;4333;48.322;14.340;2024-03-23T16:48:33;8.40;96.80
8591;DHT22;4333;48.322;14.340;2024-03-23T16:51:00;8.50;99.20
8591;DHT22;4333;48.322;14.340;2024-03-23T16:53:31;8.50;99.90
8591;DHT22;4333;48.322;14.340;2024-03-23T16:56:03;8.30;96.40
8591;DHT22;4333;48.322;14.340;2024-03-23T16:58:33;8.20;93.90
8591;DHT22;4333;48.322;14.340;2024-03-23T17:01:06;7.90;96.30
8591;DHT22;4333;48.322;14.340;2024-03-23T17:03:40;7.70;99.90
8591;DHT22;4333;48.322;14.340;2024-03-23T17:06:10;7.50;99.90
8591;DHT22;4333;48.322;14.340;2024-03-23T17:08:40;7.40;99.90
8591;DHT22;4333;48.322;14.340;2024-03-23T17:11:06;7.40;99.90